Time;durP1;ratioP1;P1;durP2;ratioP2;P2;SDS_P1;SDS_P2;PMS_P1;PMS_P2;Temp;Humidity;BMP_temperature;BMP_pressure;BME280_temperature;BME280_humidity;BME280_pressure;Samples;Min_cycle;Max_cycle;Signal;HPM_P1;HPM_P2
2022/10/15 00:00:21;;;;;;;;;4.00;0.67;;;;;23.55;46.50;100721.84;5076266;27;47136;-77
2022/10/15 00:02:47;;;;;;;;;0.00;0.00;;;;;23.55;46.91;100735.91;5076074;27;45441;-76
2022/10/15 00:05:12;;;;;;;;;1.00;1.00;;;;;23.49;46.35;100734.88;5076364;27;45736;-76
2022/10/15 00:07:37;;;;;;;;;1.67;1.67;;;;;23.56;46.33;100731.44;5074371;27;45390;-75
2022/10/15 00:10:03;;;;;;;;;1.00;1.00;;;;;23.57;46.57;100719.81;5063901;27;45346;-75
2022/10/15 00:12:28;;;;;;;;;1.00;1.00;;;;;23.56;46.64;100716.31;5076385;27;45389;-75
2022/10/15 00:14:54;;;;;;;;;1.00;1.00;;;;;23.56;46.20;100708.34;5076164;27;45331;-76
2022/10/15 00:17:19;;;;;;;;;0.00;0.00;;;;;23.55;46.56;100706.69;5075024;27;45546;-76
2022/10/15 00:19:44;;;;;;;;;2.00;1.00;;;;;23.55;46.16;100701.38;5076118;27;46685;-76
2022/10/15 00:22:10;;;;;;;;;1.00;1.00;;;;;23.23;46.87;100646.03;5075782;27;45465;-76
2022/10/15 00:24:36;;;;;;;;;0.67;0.67;;;;;23.44;46.30;100678.00;5075995;27;45338;-76
2022/10/15 00:27:01;;;;;;;;;1.00;1.00;;;;;23.54;46.70;100689.13;5076243;27;45527;-75
2022/10/15 00:29:26;;;;;;;;;2.00;2.00;;;;;23.54;46.63;100690.97;5075858;27;45364;-75
2022/10/15 00:31:52;;;;;;;;;1.00;1.00;;;;;23.54;46.36;100690.97;5076001;27;45378;-74
2022/10/15 00:34:17;;;;;;;;;1.00;0.33;;;;;23.51;46.20;100684.22;5076099;27;45437;-75
2022/10/15 00:36:42;;;;;;;;;1.67;1.00;;;;;23.53;46.22;100690.16;5075549;27;45378;-75
2022/10/15 00:39:08;;;;;;;;;0.00;0.00;;;;;23.52;46.37;100691.97;5075783;28;49697;-76
2022/10/15 00:41:40;;;;;;;;;0.00;0.00;;;;;23.51;46.41;100687.69;5075829;27;45225;-76
2022/10/15 00:44:21;;;;;;;;;1.00;1.00;;;;;23.51;46.77;100682.38;5076020;27;45469;-75
2022/10/15 00:46:53;;;;;;;;;0.00;0.00;;;;;23.51;46.64;100671.75;5075644;27;45473;-75
2022/10/15 00:49:34;;;;;;;;;1.00;1.00;;;;;23.51;46.53;100668.28;5075625;27;45350;-75
2022/10/15 00:52:05;;;;;;;;;1.00;1.00;;;;;23.51;46.78;100669.09;5075192;27;45449;-75
2022/10/15 00:54:36;;;;;;;;;1.00;1.00;;;;;23.52;46.40;100659.31;5075834;27;45324;-77
2022/10/15 00:57:01;;;;;;;;;1.00;1.00;;;;;23.51;46.69;100662.97;5075936;27;45598;-74
2022/10/15 00:59:30;;;;;;;;;1.67;1.00;;;;;23.50;46.39;100648.88;5075392;27;47048;-75
2022/10/15 01:01:55;;;;;;;;;1.00;1.00;;;;;23.50;46.41;100646.22;5075561;27;45342;-75
2022/10/15 01:04:22;;;;;;;;;1.67;0.00;;;;;23.49;46.68;100641.06;5075025;27;45354;-75
2022/10/15 01:06:47;;;;;;;;;1.00;1.00;;;;;23.50;46.81;100637.41;5075920;27;45290;-75
2022/10/15 01:09:13;;;;;;;;;1.00;1.00;;;;;23.50;46.54;100640.06;5060677;27;46036;-75
2022/10/15 01:11:44;;;;;;;;;1.00;1.00;;;;;23.50;46.86;100629.44;5075675;27;45899;-75
2022/10/15 01:14:16;;;;;;;;;1.00;1.00;;;;;23.49;46.55;100622.50;5075225;27;45488;-74
2022/10/15 01:16:46;;;;;;;;;1.00;1.00;;;;;23.46;46.65;100617.56;5075323;27;45377;-79
2022/10/15 01:19:27;;;;;;;;;2.00;1.00;;;;;23.51;46.85;100625.78;5074851;27;45322;-78
2022/10/15 01:22:04;;;;;;;;;0.00;0.00;;;;;23.51;46.97;100618.66;5062316;27;45424;-74
2022/10/15 01:24:44;;;;;;;;;0.33;0.33;;;;;23.53;47.04;100621.09;5075061;27;45284;-74
2022/10/15 01:27:30;;;;;;;;;1.00;0.00;;;;;23.54;46.75;100620.09;5075866;27;45368;-74
2022/10/15 01:30:16;;;;;;;;;1.00;1.00;;;;;23.56;47.04;100607.44;5078345;27;46434;-74
2022/10/15 01:33:23;;;;;;;;;0.00;0.00;;;;;23.50;46.70;100589.63;5079100;27;45385;-75
2022/10/15 01:35:58;;;;;;;;;1.00;1.00;;;;;23.57;46.80;100589.69;5062881;27;45408;-74
2022/10/15 01:38:32;;;;;;;;;0.00;0.00;;;;;23.57;46.70;100589.69;5078607;27;45436;-74
2022/10/15 01:41:14;;;;;;;;;0.00;0.00;;;;;23.45;46.88;100566.28;5078688;27;47107;-75
2022/10/15 01:44:11;;;;;;;;;1.00;1.00;;;;;23.58;47.34;100581.50;5078348;27;45480;-74
2022/10/15 01:46:46;;;;;;;;;1.00;1.00;;;;;23.56;47.30;100564.13;5078419;27;45427;-75
2022/10/15 01:49:14;;;;;;;;;1.00;1.00;;;;;23.57;47.36;100560.47;5078339;27;45326;-75
2022/10/15 01:51:43;;;;;;;;;1.00;1.00;;;;;23.56;46.84;100546.38;5078373;27;46021;-74
2022/10/15 01:54:16;;;;;;;;;0.67;0.67;;;;;23.57;47.02;100542.69;5071772;27;45426;-75
2022/10/15 01:56:48;;;;;;;;;0.00;0.00;;;;;23.57;46.79;100536.56;5072172;28;45760;-74
2022/10/15 01:59:16;;;;;;;;;1.00;1.00;;;;;23.56;47.28;100522.47;5078187;27;45338;-75
2022/10/15 02:01:42;;;;;;;;;1.00;1.00;;;;;23.56;47.02;100516.31;5078290;27;46221;-75
2022/10/15 02:04:25;;;;;;;;;0.00;0.00;;;;;23.47;46.95;100497.88;5077412;27;45397;-75
2022/10/15 02:07:19;;;;;;;;;0.33;0.33;;;;;23.55;47.37;100504.09;5078666;27;45359;-75
2022/10/15 02:09:52;;;;;;;;;1.00;1.00;;;;;23.51;47.28;100495.69;5077775;27;45703;-75
2022/10/15 02:12:30;;;;;;;;;0.00;0.00;;;;;23.54;47.11;100489.97;5077934;27;46893;-74
2022/10/15 02:15:04;;;;;;;;;0.00;0.00;;;;;23.54;47.03;100481.19;5077968;27;45394;-75
2022/10/15 02:18:01;;;;;;;;;1.67;1.67;;;;;23.53;47.00;100472.41;5077806;27;45462;-75
2022/10/15 02:21:04;;;;;;;;;0.67;0.67;;;;;23.46;46.50;100450.31;5067224;27;45437;-74
2022/10/15 02:23:55;;;;;;;;;1.00;1.00;;;;;23.52;47.02;100457.50;5077671;27;45463;-75
2022/10/15 02:26:24;;;;;;;;;0.67;0.33;;;;;23.52;46.94;100449.53;5078080;27;45470;-76
2022/10/15 02:28:54;;;;;;;;;1.00;1.00;;;;;23.52;46.85;100454.84;5071209;27;45390;-75
2022/10/15 02:31:22;;;;;;;;;0.00;0.00;;;;;23.52;46.75;100447.69;5077483;27;45507;-76
2022/10/15 02:33:52;;;;;;;;;3.00;1.00;;;;;23.49;46.71;100436.63;5077818;27;46002;-76
2022/10/15 02:36:18;;;;;;;;;1.00;1.00;;;;;23.51;46.84;100429.31;5077775;28;45352;-75
2022/10/15 02:38:45;;;;;;;;;1.00;1.00;;;;;23.52;47.28;100429.09;5077017;28;45503;-75
2022/10/15 02:41:11;;;;;;;;;1.33;1.00;;;;;23.52;46.82;100423.00;5077723;27;45536;-76
2022/10/15 02:43:38;;;;;;;;;0.00;0.00;;;;;23.55;47.08;100416.47;5077838;28;45434;-75
2022/10/15 02:46:06;;;;;;;;;0.67;0.67;;;;;23.40;46.76;100377.56;5076975;27;45343;-76
2022/10/15 02:48:32;;;;;;;;;0.00;0.00;;;;;23.55;46.63;100411.94;5077851;28;45232;-75
2022/10/15 02:50:57;;;;;;;;;0.25;0.25;;;;;23.55;46.68;100408.50;5077872;28;45304;-76
2022/10/15 02:53:22;;;;;;;;;0.67;0.67;;;;;23.55;46.87;100409.28;5077269;28;46378;-75
2022/10/15 02:55:47;;;;;;;;;0.00;0.00;;;;;23.54;47.06;100398.88;5077760;28;45424;-75
2022/10/15 02:58:13;;;;;;;;;0.00;0.00;;;;;23.55;47.02;100385.38;5077486;28;45259;-73
2022/10/15 03:00:38;;;;;;;;;1.00;0.00;;;;;23.54;47.07;100389.09;5077211;27;45528;-75
2022/10/15 03:03:03;;;;;;;;;1.33;0.00;;;;;23.55;46.66;100387.25;5077139;27;45342;-75
2022/10/15 03:05:29;;;;;;;;;1.00;1.00;;;;;23.42;46.77;100362.25;5077377;27;45422;-76
2022/10/15 03:07:54;;;;;;;;;1.00;1.00;;;;;23.48;47.05;100365.94;5073474;27;45414;-76
2022/10/15 03:10:19;;;;;;;;;0.00;0.00;;;;;23.54;46.95;100369.66;5067184;27;45514;-76
2022/10/15 03:12:45;;;;;;;;;0.00;0.00;;;;;23.52;47.01;100360.06;5075657;27;48228;-75
2022/10/15 03:15:11;;;;;;;;;1.00;1.00;;;;;23.52;47.28;100365.38;5077066;27;45383;-76
2022/10/15 03:17:36;;;;;;;;;0.67;0.67;;;;;23.46;46.81;100350.22;5077512;27;45420;-75
2022/10/15 03:20:02;;;;;;;;;1.00;1.00;;;;;23.52;46.85;100359.25;5076960;27;45370;-75
2022/10/15 03:22:27;;;;;;;;;0.00;0.00;;;;;23.48;46.59;100358.81;5077178;27;45484;-77
2022/10/15 03:24:52;;;;;;;;;1.00;0.00;;;;;23.52;46.68;100348.66;5076910;27;45349;-75
2022/10/15 03:27:17;;;;;;;;;1.00;1.00;;;;;23.51;46.92;100344.34;5077156;27;45329;-74
2022/10/15 03:29:43;;;;;;;;;0.00;0.00;;;;;23.51;47.23;100337.19;5076606;27;45449;-75
2022/10/15 03:32:08;;;;;;;;;0.00;0.00;;;;;23.49;47.02;100336.59;5080592;27;45294;-76
2022/10/15 03:34:33;;;;;;;;;0.00;0.00;;;;;23.50;47.34;100343.53;5076705;27;45351;-75
2022/10/15 03:36:59;;;;;;;;;0.33;0.33;;;;;23.49;46.67;100339.25;5076877;28;45374;-76
2022/10/15 03:39:24;;;;;;;;;1.00;1.00;;;;;23.46;46.90;100341.44;5076805;27;45431;-75
2022/10/15 03:41:52;;;;;;;;;1.00;1.00;;;;;23.50;46.92;100343.53;5076782;27;45311;-76
2022/10/15 03:44:18;;;;;;;;;0.00;0.00;;;;;23.41;47.12;100326.13;5076395;27;45382;-75
2022/10/15 03:46:43;;;;;;;;;0.00;0.00;;;;;23.51;47.10;100336.38;5076634;27;45403;-75
2022/10/15 03:49:10;;;;;;;;;0.00;0.00;;;;;23.49;46.78;100328.63;5076846;27;45361;-75
2022/10/15 03:51:36;;;;;;;;;0.00;0.00;;;;;23.50;47.28;100332.91;5076281;27;47232;-76
2022/10/15 03:54:01;;;;;;;;;1.00;1.00;;;;;23.48;46.69;100323.47;5076289;27;45424;-77
2022/10/15 03:56:26;;;;;;;;;0.00;0.00;;;;;23.52;46.59;100330.06;5076752;27;45524;-75
2022/10/15 03:58:52;;;;;;;;;2.00;1.00;;;;;23.51;47.02;100321.28;5076215;27;45386;-75
2022/10/15 04:01:18;;;;;;;;;1.00;1.00;;;;;23.52;46.75;100322.09;5076410;27;45982;-75
2022/10/15 04:03:43;;;;;;;;;0.00;0.00;;;;;23.52;47.01;100322.88;5076276;27;45444;-76
2022/10/15 04:06:09;;;;;;;;;1.00;1.00;;;;;23.53;47.01;100321.06;5076675;27;45262;-75
2022/10/15 04:08:34;;;;;;;;;0.00;0.00;;;;;23.54;47.21;100321.88;5066776;27;45410;-75
2022/10/15 04:11:00;;;;;;;;;1.00;1.00;;;;;23.54;46.65;100321.88;5071936;27;45363;-76
2022/10/15 04:13:27;;;;;;;;;0.67;0.67;;;;;23.54;47.30;100317.38;5075856;27;45513;-75
2022/10/15 04:15:52;;;;;;;;;0.00;0.00;;;;;23.50;46.78;100319.63;5076445;27;45217;-75
2022/10/15 04:18:20;;;;;;;;;1.00;1.00;;;;;23.54;46.96;100321.88;5076324;27;45435;-75
2022/10/15 04:20:46;;;;;;;;;0.33;0.33;;;;;23.52;46.96;100317.56;5075798;27;46293;-76
2022/10/15 04:23:11;;;;;;;;;0.33;0.00;;;;;23.54;46.93;100322.69;5076124;27;45488;-75
2022/10/15 04:25:37;;;;;;;;;1.00;1.00;;;;;23.48;47.03;100308.38;5076376;27;45716;-76
2022/10/15 04:28:02;;;;;;;;;0.67;0.67;;;;;23.54;46.97;100313.91;5075560;27;45421;-76
2022/10/15 04:30:28;;;;;;;;;0.00;0.00;;;;;23.49;47.37;100304.72;5075880;28;47266;-75
2022/10/15 04:32:53;;;;;;;;;0.00;0.00;;;;;23.51;46.75;100313.31;5086964;27;45367;-75
2022/10/15 04:35:19;;;;;;;;;0.00;0.00;;;;;23.53;47.20;100313.09;5076383;27;45310;-76
2022/10/15 04:37:44;;;;;;;;;0.67;0.67;;;;;23.55;47.18;100310.25;5076234;27;45392;-76
2022/10/15 04:40:10;;;;;;;;;0.00;0.00;;;;;23.52;47.10;100308.81;5075656;28;47502;-76
2022/10/15 04:42:36;;;;;;;;;0.00;0.00;;;;;23.52;46.78;100311.47;5075639;27;45453;-76
2022/10/15 04:45:02;;;;;;;;;0.33;0.33;;;;;23.52;47.12;100309.59;5075971;27;45313;-76
2022/10/15 04:47:27;;;;;;;;;0.00;0.00;;;;;23.51;46.92;100305.34;5075813;27;45710;-75
2022/10/15 04:49:52;;;;;;;;;1.00;0.00;;;;;23.51;47.04;100305.34;5075853;27;46054;-75
2022/10/15 04:52:18;;;;;;;;;0.00;0.00;;;;;23.51;46.83;100308.00;5075633;27;45354;-76
2022/10/15 04:54:43;;;;;;;;;0.00;0.00;;;;;23.51;46.98;100307.16;5075674;27;45614;-75
2022/10/15 04:57:09;;;;;;;;;1.00;1.00;;;;;23.50;46.99;100303.69;5075431;27;45389;-75
2022/10/15 04:59:34;;;;;;;;;0.00;0.00;;;;;23.50;46.80;100310.84;5075569;27;46490;-76
2022/10/15 05:01:59;;;;;;;;;0.00;0.00;;;;;23.49;47.26;100310.03;5075584;27;45429;-75
2022/10/15 05:04:24;;;;;;;;;0.00;0.00;;;;;23.49;47.06;100306.53;5079088;27;45331;-76
2022/10/15 05:06:50;;;;;;;;;0.00;0.00;;;;;23.50;47.09;100316.16;5078122;27;45426;-75
2022/10/15 05:09:15;;;;;;;;;1.00;1.00;;;;;23.48;46.89;100307.53;5060529;27;45817;-76
2022/10/15 05:11:40;;;;;;;;;1.00;1.00;;;;;23.50;47.21;100314.31;5079097;27;45358;-75
2022/10/15 05:14:06;;;;;;;;;0.00;0.00;;;;;23.49;46.85;100320.66;5079201;27;45460;-76
2022/10/15 05:16:32;;;;;;;;;1.00;1.00;;;;;23.50;47.19;100313.50;5078910;27;45548;-75
2022/10/15 05:19:00;;;;;;;;;1.00;1.00;;;;;23.48;47.00;100311.00;5078840;27;45358;-76
2022/10/15 05:21:27;;;;;;;;;0.00;0.00;;;;;23.50;47.16;100311.66;5078746;27;45366;-76
2022/10/15 05:23:52;;;;;;;;;0.00;0.00;;;;;23.50;47.02;100310.84;5079045;27;45439;-75
2022/10/15 05:26:21;;;;;;;;;0.00;0.00;;;;;23.51;47.31;100304.50;5078772;27;45374;-76
2022/10/15 05:28:46;;;;;;;;;0.00;0.00;;;;;23.50;47.13;100310.84;5078810;27;46106;-75
2022/10/15 05:31:18;;;;;;;;;0.00;0.00;;;;;23.51;47.15;100310.66;5078872;27;45426;-76
2022/10/15 05:33:43;;;;;;;;;1.00;1.00;;;;;23.52;46.68;100311.47;5079521;27;45320;-75
2022/10/15 05:36:18;;;;;;;;;0.00;0.00;;;;;23.52;47.21;100317.56;5078662;27;45366;-75
2022/10/15 05:38:48;;;;;;;;;1.00;1.00;;;;;23.48;47.03;100308.38;5078494;27;47285;-76
2022/10/15 05:41:14;;;;;;;;;2.00;0.00;;;;;23.51;46.66;100309.81;5078371;27;45251;-75
2022/10/15 05:43:39;;;;;;;;;0.00;0.00;;;;;23.53;47.19;100313.09;5078553;27;45509;-75
2022/10/15 05:46:05;;;;;;;;;0.33;0.33;;;;;23.54;46.90;100316.56;5078740;27;45354;-76
2022/10/15 05:48:30;;;;;;;;;0.00;0.00;;;;;23.53;46.77;100318.41;5078234;27;45424;-76
2022/10/15 05:51:04;;;;;;;;;1.00;0.00;;;;;23.54;47.04;100321.88;5078712;27;45396;-76
2022/10/15 05:53:30;;;;;;;;;0.00;0.00;;;;;23.54;47.29;100316.56;5078362;27;45298;-76
2022/10/15 05:55:57;;;;;;;;;0.00;0.00;;;;;23.54;46.85;100313.91;5078142;27;45532;-76
2022/10/15 05:58:23;;;;;;;;;1.67;0.00;;;;;23.55;46.97;100320.88;5078440;27;47205;-76
2022/10/15 06:00:56;;;;;;;;;0.00;0.00;;;;;23.54;47.03;100324.53;5078149;27;45405;-76
2022/10/15 06:03:22;;;;;;;;;0.00;0.00;;;;;23.53;47.31;100318.41;5078214;27;45339;-76
2022/10/15 06:05:48;;;;;;;;;0.00;0.00;;;;;23.54;46.98;100329.84;5106409;27;45442;-76
2022/10/15 06:08:14;;;;;;;;;0.33;0.33;;;;;23.53;47.21;100329.03;5061803;27;46196;-75
2022/10/15 06:10:39;;;;;;;;;0.00;0.00;;;;;23.51;46.94;100326.56;5070237;27;45434;-76
2022/10/15 06:13:05;;;;;;;;;0.00;0.00;;;;;23.52;47.31;100322.09;5078373;27;45385;-76
2022/10/15 06:15:31;;;;;;;;;0.00;0.00;;;;;23.52;46.98;100330.06;5078283;27;45472;-76
2022/10/15 06:17:56;;;;;;;;;1.33;0.33;;;;;23.50;46.92;100327.59;5077813;27;46046;-75
2022/10/15 06:20:22;;;;;;;;;0.00;0.00;;;;;23.52;46.77;100330.06;5077923;27;45460;-75
2022/10/15 06:22:47;;;;;;;;;0.00;0.00;;;;;23.47;46.90;100327.97;5078391;27;45413;-75
2022/10/15 06:25:12;;;;;;;;;1.00;1.00;;;;;23.52;46.93;100340.69;5077625;27;45949;-75
2022/10/15 06:27:38;;;;;;;;;0.00;0.00;;;;;23.50;46.86;100338.22;5078011;27;45937;-73
2022/10/15 06:30:03;;;;;;;;;0.00;0.00;;;;;23.49;46.84;100336.59;5077823;27;45501;-76
2022/10/15 06:32:29;;;;;;;;;0.33;0.33;;;;;23.49;46.86;100336.59;5078075;27;45318;-75
2022/10/15 06:34:54;;;;;;;;;0.00;0.00;;;;;23.51;47.28;100339.03;5085659;27;45291;-75
2022/10/15 06:37:19;;;;;;;;;0.33;0.33;;;;;23.50;47.38;100346.16;5077736;27;46529;-76
2022/10/15 06:39:45;;;;;;;;;0.00;0.00;;;;;23.50;47.10;100338.22;5077426;27;45315;-75
2022/10/15 06:42:11;;;;;;;;;0.00;0.00;;;;;23.50;47.03;100340.03;5077823;27;45239;-76
2022/10/15 06:44:36;;;;;;;;;0.00;0.00;;;;;23.49;46.75;100341.91;5077746;27;45255;-75
2022/10/15 06:47:02;;;;;;;;;0.00;0.00;;;;;23.50;46.75;100350.66;5077557;27;45467;-76
2022/10/15 06:49:27;;;;;;;;;1.00;1.00;;;;;23.50;46.98;100353.31;5077596;27;45394;-75
2022/10/15 06:51:52;;;;;;;;;0.00;0.00;;;;;23.50;47.34;100348.00;5077513;27;45436;-75
2022/10/15 06:54:18;;;;;;;;;0.00;0.00;;;;;23.50;47.38;100354.13;5077611;27;45366;-75
2022/10/15 06:56:43;;;;;;;;;0.00;0.00;;;;;23.21;47.42;100302.22;5077636;27;47080;-75
2022/10/15 06:59:08;;;;;;;;;0.00;0.00;;;;;23.50;46.95;100356.78;5077640;27;45673;-75
2022/10/15 07:01:34;;;;;;;;;1.33;1.00;;;;;23.51;46.97;100357.63;5077625;27;45473;-75
2022/10/15 07:03:59;;;;;;;;;0.00;0.00;;;;;23.51;47.16;100361.09;5077142;27;45353;-75
2022/10/15 07:06:24;;;;;;;;;0.00;0.00;;;;;23.45;47.05;100356.56;5077087;27;47338;-74
2022/10/15 07:08:50;;;;;;;;;0.00;0.00;;;;;23.54;46.84;100377.63;5065247;27;45401;-73
2022/10/15 07:11:15;;;;;;;;;0.00;0.00;;;;;23.53;47.36;100374.16;5074781;27;45343;-76
2022/10/15 07:13:42;;;;;;;;;0.00;0.00;;;;;23.54;47.25;100380.28;5077691;27;45330;-76
2022/10/15 07:16:09;;;;;;;;;0.00;0.00;;;;;23.54;47.20;100385.59;5077160;27;47064;-75
2022/10/15 07:18:35;;;;;;;;;2.00;0.00;;;;;23.52;47.15;100391.91;5077014;27;45492;-75
2022/10/15 07:21:02;;;;;;;;;0.00;0.00;;;;;23.46;47.71;100382.09;5077208;27;45446;-75
2022/10/15 07:23:28;;;;;;;;;0.00;0.00;;;;;23.55;47.73;100397.88;5076863;28;45450;-75
2022/10/15 07:25:55;;;;;;;;;0.00;0.00;;;;;23.55;47.76;100403.97;5076363;27;45314;-78
2022/10/15 07:28:21;;;;;;;;;0.67;0.00;;;;;23.56;47.98;100402.97;5077046;27;45497;-75
2022/10/15 07:30:46;;;;;;;;;0.00;0.00;;;;;23.58;47.91;100418.69;5077104;27;45370;-78
2022/10/15 07:33:11;;;;;;;;;0.00;0.00;;;;;23.52;47.40;100423.78;5076883;27;45405;-76
2022/10/15 07:35:37;;;;;;;;;0.00;0.00;;;;;23.60;47.50;100436.06;5083617;27;46196;-75
2022/10/15 07:38:03;;;;;;;;;2.00;1.00;;;;;23.60;47.86;100425.44;5077792;27;45621;-76
2022/10/15 07:40:29;;;;;;;;;1.00;0.00;;;;;23.61;47.58;100440.34;5077228;27;45287;-76
2022/10/15 07:42:56;;;;;;;;;1.00;0.67;;;;;23.61;48.19;100440.34;5077041;27;45489;-78
2022/10/15 07:45:22;;;;;;;;;0.00;0.00;;;;;23.62;48.22;100443.84;5076535;27;48274;-78
2022/10/15 07:47:47;;;;;;;;;0.00;0.00;;;;;23.60;47.73;100453.84;5076861;27;45371;-78
2022/10/15 07:50:13;;;;;;;;;0.00;0.00;;;;;23.65;47.80;100462.03;5076414;28;45354;-78
2022/10/15 07:52:38;;;;;;;;;1.00;0.00;;;;;23.65;48.23;100461.22;5076841;27;45475;-78
2022/10/15 07:55:04;;;;;;;;;0.00;0.00;;;;;23.63;47.55;100456.91;5076682;27;47455;-78
2022/10/15 07:57:29;;;;;;;;;1.00;0.00;;;;;23.65;47.75;100464.69;5076726;27;45340;-76
2022/10/15 07:59:54;;;;;;;;;1.00;0.00;;;;;23.64;48.00;100473.66;5076525;27;45335;-79
2022/10/15 08:02:21;;;;;;;;;1.00;0.00;;;;;23.63;47.89;100466.72;5076536;27;45342;-78
2022/10/15 08:04:46;;;;;;;;;0.00;0.00;;;;;23.65;47.57;100479.81;5076062;27;46384;-78
2022/10/15 08:07:12;;;;;;;;;3.00;0.00;;;;;23.56;47.87;100471.19;5076354;27;45441;-78
2022/10/15 08:09:37;;;;;;;;;1.00;0.00;;;;;23.65;47.91;100490.44;5062461;27;45311;-78
2022/10/15 08:12:03;;;;;;;;;0.00;0.00;;;;;23.65;48.03;100490.44;5076642;27;45290;-78
2022/10/15 08:14:28;;;;;;;;;0.67;0.67;;;;;23.64;48.10;100497.56;5061955;27;45966;-78
2022/10/15 08:16:54;;;;;;;;;0.00;0.00;;;;;23.64;48.29;100500.22;5076577;27;45406;-78
2022/10/15 08:19:19;;;;;;;;;0.00;0.00;;;;;23.47;47.84;100484.59;5076017;27;45397;-79
2022/10/15 08:21:45;;;;;;;;;1.00;0.00;;;;;23.65;48.04;100515.16;5076183;27;45441;-78
2022/10/15 08:24:11;;;;;;;;;0.00;0.00;;;;;23.55;48.04;100512.84;5076323;27;47492;-77
2022/10/15 08:26:36;;;;;;;;;1.00;0.00;;;;;23.67;48.28;100533.53;5076049;27;45536;-78
2022/10/15 08:29:01;;;;;;;;;0.00;0.00;;;;;23.68;48.00;100532.53;5076546;27;45257;-78
2022/10/15 08:31:27;;;;;;;;;0.33;0.00;;;;;23.68;48.08;100545.81;5074429;27;45691;-78
2022/10/15 08:33:52;;;;;;;;;0.00;0.00;;;;;23.69;47.97;100548.25;5063267;28;47194;-78
2022/10/15 08:36:18;;;;;;;;;0.00;0.00;;;;;23.61;48.02;100535.13;5076672;27;45332;-78
2022/10/15 08:38:43;;;;;;;;;0.00;0.00;;;;;23.69;48.09;100542.94;5075460;28;45416;-78
2022/10/15 08:41:41;;;;;;;;;0.67;0.67;;;;;23.70;47.58;100547.25;5076422;27;45441;-79
2022/10/15 08:44:20;;;;;;;;;0.00;0.00;;;;;23.71;47.83;100550.69;5075303;27;47228;-78
2022/10/15 08:46:49;;;;;;;;;0.00;0.00;;;;;23.72;47.67;100571.75;5075507;27;45542;-77
2022/10/15 08:49:50;;;;;;;;;0.33;0.33;;;;;23.74;48.00;100571.56;5091183;27;45328;-78
2022/10/15 08:52:20;;;;;;;;;0.00;0.00;;;;;23.73;47.74;100564.63;5075837;27;45497;-78
2022/10/15 08:54:45;;;;;;;;;0.00;0.00;;;;;23.74;48.20;100572.38;5075622;27;47177;-78
2022/10/15 08:57:32;;;;;;;;;0.00;0.00;;;;;23.74;48.18;100575.03;5075786;27;45379;-78
2022/10/15 09:00:17;;;;;;;;;0.00;0.00;;;;;23.76;47.96;100576.69;5075987;27;45354;-78
2022/10/15 09:02:47;;;;;;;;;0.00;0.00;;;;;23.77;47.91;100571.16;5075296;27;45775;-77
2022/10/15 09:05:51;;;;;;;;;0.00;0.00;;;;;23.77;47.94;100587.09;5075296;27;47271;-77
2022/10/15 09:08:23;;;;;;;;;0.00;0.00;;;;;23.78;47.88;100595.91;5068659;27;45678;-77
2022/10/15 09:10:56;;;;;;;;;1.00;0.00;;;;;23.78;47.78;100603.88;5069366;28;45329;-77
2022/10/15 09:13:29;;;;;;;;;0.00;0.00;;;;;23.78;47.85;100604.69;5061996;28;45310;-78
2022/10/15 09:16:18;;;;;;;;;0.00;0.00;;;;;23.78;47.58;100606.53;5075280;27;46470;-77
2022/10/15 09:18:51;;;;;;;;;0.00;0.00;;;;;23.79;47.66;100598.34;5063551;28;45397;-78
2022/10/15 09:21:17;;;;;;;;;0.00;0.00;;;;;23.74;47.84;100590.16;5075345;27;45461;-78
2022/10/15 09:23:43;;;;;;;;;0.67;0.00;;;;;23.80;47.38;100596.50;5075441;27;45328;-77
2022/10/15 09:26:11;;;;;;;;;0.00;0.00;;;;;23.81;47.61;100604.28;5075222;27;46370;-78
2022/10/15 09:29:04;;;;;;;;;0.00;0.00;;;;;23.81;47.84;100606.94;5061430;28;45490;-78
2022/10/15 09:31:39;;;;;;;;;0.00;0.00;;;;;23.82;47.59;100621.88;5075335;27;45453;-77
2022/10/15 09:34:22;;;;;;;;;0.00;0.00;;;;;23.71;47.74;100607.31;5075193;27;45355;-78
2022/10/15 09:36:59;;;;;;;;;1.00;1.00;;;;;23.81;47.38;100622.88;5075943;27;47254;-77
2022/10/15 09:39:24;;;;;;;;;0.00;0.00;;;;;23.84;47.42;100635.75;5075024;27;45319;-77
2022/10/15 09:42:05;;;;;;;;;0.00;0.00;;;;;23.85;47.27;100631.28;5074981;27;45260;-77
2022/10/15 09:44:37;;;;;;;;;0.00;0.00;;;;;23.86;47.75;100635.59;5075326;27;45469;-76
2022/10/15 09:47:28;;;;;;;;;0.00;0.00;;;;;23.88;47.34;100635.38;5074706;27;47126;-77
2022/10/15 09:49:54;;;;;;;;;0.33;0.33;;;;;23.90;47.57;100636.00;5078343;27;45362;-79
2022/10/15 09:52:47;;;;;;;;;0.00;0.00;;;;;23.91;47.27;100635.81;5078672;27;45702;-78
2022/10/15 09:55:40;;;;;;;;;0.00;0.00;;;;;23.94;47.66;100645.22;5078472;27;45453;-78
2022/10/15 09:59:03;;;;;;;;;0.00;0.00;;;;;23.91;47.57;100634.97;5078571;27;46452;-78
2022/10/15 10:01:31;;;;;;;;;0.00;0.00;;;;;23.99;47.42;100656.06;4975856;28;45899;-78
2022/10/15 10:04:19;;;;;;;;;0.00;0.00;;;;;24.02;47.43;100652.19;4976189;28;45503;-77
2022/10/15 10:06:49;;;;;;;;;0.00;0.00;;;;;23.99;47.29;100639.31;4976161;28;45359;-78
2022/10/15 10:09:24;;;;;;;;;0.00;0.00;;;;;24.06;47.45;100650.78;4962319;28;45984;-79
2022/10/15 10:11:55;;;;;;;;;0.00;0.00;;;;;24.09;47.21;100641.59;4976134;28;45445;-76
2022/10/15 10:14:31;;;;;;;;;0.67;0.00;;;;;24.11;47.49;100658.16;4975969;28;45529;-77
2022/10/15 10:17:23;;;;;;;;;0.00;0.00;;;;;24.12;47.31;100657.13;4976042;28;45453;-78
2022/10/15 10:20:14;;;;;;;;;0.00;0.00;;;;;24.12;47.06;100668.59;4973217;28;46388;-78
2022/10/15 10:23:01;;;;;;;;;0.00;0.00;;;;;24.04;46.99;100650.16;4975931;28;45418;-77
2022/10/15 10:25:29;;;;;;;;;0.00;0.00;;;;;24.10;47.43;100659.97;4976167;28;45631;-77
2022/10/15 10:27:58;;;;;;;;;0.00;0.00;;;;;24.08;46.94;100654.03;4975885;28;45506;-77
2022/10/15 10:30:23;;;;;;;;;0.00;0.00;;;;;24.02;47.08;100638.91;4975391;28;46186;-79
2022/10/15 10:32:56;;;;;;;;;1.00;1.00;;;;;24.08;46.75;100654.03;4975794;28;50354;-78
2022/10/15 10:35:24;;;;;;;;;0.33;0.33;;;;;24.09;47.07;100663.66;4970287;28;45450;-77
2022/10/15 10:37:49;;;;;;;;;0.00;0.00;;;;;24.00;46.88;100649.72;5044848;27;45393;-78
2022/10/15 10:40:28;;;;;;;;;0.67;0.33;;;;;24.11;46.77;100666.94;5079581;27;47174;-79
2022/10/15 10:43:15;;;;;;;;;0.00;0.00;;;;;24.11;46.95;100674.09;5077800;27;45371;-78
2022/10/15 10:45:51;;;;;;;;;0.00;0.00;;;;;24.11;47.12;100671.44;5064015;27;45463;-77
2022/10/15 10:48:19;;;;;;;;;0.00;0.00;;;;;24.10;46.98;100675.94;5077905;27;45269;-77
2022/10/15 10:50:44;;;;;;;;;0.00;0.00;;;;;24.08;46.67;100677.97;5077513;27;46205;-77
2022/10/15 10:53:22;;;;;;;;;2.00;1.00;;;;;24.10;46.96;100683.09;5077580;27;45465;-78
2022/10/15 10:55:50;;;;;;;;;0.00;0.00;;;;;23.94;46.73;100661.16;5077734;27;45319;-77
2022/10/15 10:58:21;;;;;;;;;0.00;0.00;;;;;24.05;47.11;100673.03;5065386;28;45361;-78
2022/10/15 11:00:51;;;;;;;;;0.00;0.00;;;;;24.07;46.90;100679.78;5074981;27;45311;-78
2022/10/15 11:03:35;;;;;;;;;0.00;0.00;;;;;24.09;47.12;100684.09;5077394;27;45445;-78
2022/10/15 11:06:24;;;;;;;;;0.00;0.00;;;;;24.07;46.96;100679.78;5077400;27;45409;-77
2022/10/15 11:09:01;;;;;;;;;0.00;0.00;;;;;24.09;47.33;100676.97;5061098;28;45383;-78
2022/10/15 11:11:27;;;;;;;;;0.00;0.00;;;;;24.09;46.84;100678.78;5076084;27;45460;-78
2022/10/15 11:14:07;;;;;;;;;0.00;0.00;;;;;24.04;46.85;100671.41;5076999;27;45288;-78
2022/10/15 11:16:41;;;;;;;;;0.00;0.00;;;;;24.07;46.76;100676.34;5077271;27;45490;-77
2022/10/15 11:19:14;;;;;;;;;0.00;0.00;;;;;24.05;46.84;100676.53;5077266;27;45429;-78
2022/10/15 11:22:07;;;;;;;;;1.00;0.33;;;;;24.04;46.78;100672.25;5076972;27;46246;-78
2022/10/15 11:24:42;;;;;;;;;0.00;0.00;;;;;24.05;46.64;100683.66;5077034;27;45358;-78
2022/10/15 11:27:32;;;;;;;;;0.00;0.00;;;;;24.04;46.76;100690.84;5077169;27;45346;-78
2022/10/15 11:30:25;;;;;;;;;0.00;0.00;;;;;24.03;46.97;100694.50;5076722;27;45444;-77
2022/10/15 11:33:23;;;;;;;;;0.00;0.00;;;;;24.02;46.83;100690.19;5076799;27;47208;-77
2022/10/15 11:36:04;;;;;;;;;1.00;0.00;;;;;24.01;46.96;100696.56;5066361;28;45388;-77
2022/10/15 11:38:41;;;;;;;;;0.00;0.00;;;;;24.00;47.07;100691.41;5086332;27;45622;-77